createdAt,value
2022-11-26T00:02:24.334Z,7.13
2022-11-26T00:04:53.110Z,8.25
2022-11-26T00:07:25.995Z,6.63
2022-11-26T00:09:56.440Z,7.97
2022-11-26T00:12:34.402Z,6.75
2022-11-26T00:15:20.909Z,7.72
2022-11-26T00:17:49.621Z,7.15
2022-11-26T00:20:18.412Z,7.57
2022-11-26T00:22:50.253Z,7.88
2022-11-26T00:25:21.802Z,9.02
2022-11-26T00:27:50.390Z,8.70
2022-11-26T00:30:28.231Z,6.97
2022-11-26T00:32:56.280Z,8.52
2022-11-26T00:35:24.129Z,7.82
2022-11-26T00:37:56.897Z,9.27
2022-11-26T00:40:27.747Z,7.53
2022-11-26T00:43:00.069Z,7.72
2022-11-26T00:45:31.243Z,7.57
2022-11-26T00:47:58.389Z,9.55
2022-11-26T00:50:27.477Z,8.18
2022-11-26T00:52:57.278Z,9.00
2022-11-26T00:55:27.306Z,9.60
2022-11-26T00:57:54.915Z,8.35
2022-11-26T01:00:26.178Z,9.63
2022-11-26T01:02:53.912Z,10.02
2022-11-26T01:05:23.721Z,8.32
2022-11-26T01:07:53.082Z,9.57
2022-11-26T01:10:30.825Z,9.18
2022-11-26T01:12:57.909Z,9.77
2022-11-26T01:15:27.140Z,8.68
2022-11-26T01:17:54.191Z,7.78
2022-11-26T01:20:30.126Z,8.65
2022-11-26T01:22:59.065Z,8.20
2022-11-26T01:25:27.582Z,9.82
2022-11-26T01:27:55.180Z,8.50
2022-11-26T01:30:27.761Z,7.50
2022-11-26T01:32:55.089Z,7.65
2022-11-26T01:35:22.529Z,8.65
2022-11-26T01:37:50.032Z,7.95
2022-11-26T01:40:33.134Z,8.13
2022-11-26T01:43:06.954Z,8.02
2022-11-26T01:45:33.949Z,9.15
2022-11-26T01:48:00.946Z,8.50
2022-11-26T01:50:34.481Z,7.10
2022-11-26T01:53:12.897Z,7.80
2022-11-26T01:55:48.722Z,6.70
2022-11-26T02:00:49.100Z,7.63
2022-11-26T02:03:17.264Z,6.80
2022-11-26T02:06:04.225Z,8.25
2022-11-26T02:08:34.637Z,7.25
2022-11-26T02:11:19.683Z,7.22
2022-11-26T02:13:54.037Z,6.03
2022-11-26T02:16:37.915Z,7.07
2022-11-26T02:19:50.635Z,8.55
2022-11-26T02:22:38.556Z,6.97
2022-11-26T02:25:36.188Z,7.40
2022-11-26T02:28:35.800Z,6.97
2022-11-26T02:31:10.017Z,6.85
2022-11-26T02:34:22.555Z,7.45
2022-11-26T02:37:16.141Z,8.38
2022-11-26T02:42:39.239Z,8.80
2022-11-26T02:45:18.960Z,8.57
2022-11-26T02:47:51.971Z,7.10
2022-11-26T02:50:45.780Z,7.35
2022-11-26T02:53:16.382Z,7.65
2022-11-26T02:55:50.048Z,7.45
2022-11-26T02:58:20.555Z,7.70
2022-11-26T03:00:50.433Z,9.60
2022-11-26T03:03:36.761Z,7.80
2022-11-26T03:06:11.818Z,8.32
2022-11-26T03:08:39.561Z,8.48
2022-11-26T03:11:06.785Z,8.00
2022-11-26T03:13:33.919Z,8.43
2022-11-26T03:16:01.148Z,8.13
2022-11-26T03:18:28.188Z,8.65
2022-11-26T03:20:55.164Z,8.23
2022-11-26T03:23:22.099Z,9.18
2022-11-26T03:25:49.095Z,7.43
2022-11-26T03:28:16.814Z,8.07
2022-11-26T03:30:44.170Z,10.68
2022-11-26T03:33:17.331Z,9.40
2022-11-26T03:35:45.082Z,9.82
2022-11-26T03:38:12.010Z,8.90
2022-11-26T03:40:38.991Z,10.68
2022-11-26T03:43:06.188Z,8.77
2022-11-26T03:45:33.622Z,9.93
2022-11-26T03:48:00.984Z,9.82
2022-11-26T03:50:28.436Z,9.18
2022-11-26T03:53:01.062Z,9.32
2022-11-26T03:55:32.343Z,9.73
2022-11-26T03:57:59.525Z,9.77
2022-11-26T04:00:28.212Z,8.65
2022-11-26T04:02:57.011Z,8.55
2022-11-26T04:05:24.007Z,9.15
2022-11-26T04:07:50.996Z,9.10
2022-11-26T04:10:18.071Z,10.55
2022-11-26T04:12:49.562Z,9.45
2022-11-26T04:15:17.680Z,9.00
2022-11-26T04:17:46.158Z,9.82
2022-11-26T04:20:13.838Z,9.88
2022-11-26T04:22:48.634Z,9.70
2022-11-26T04:25:18.739Z,9.18
2022-11-26T04:27:46.892Z,8.82
2022-11-26T04:30:15.220Z,8.48
2022-11-26T04:32:42.421Z,9.05
2022-11-26T04:35:09.751Z,9.57
2022-11-26T04:37:36.920Z,9.60
2022-11-26T04:40:04.532Z,8.88
2022-11-26T04:42:31.692Z,9.13
2022-11-26T04:44:58.597Z,6.82
2022-11-26T04:47:25.669Z,8.55
2022-11-26T04:49:52.681Z,6.78
2022-11-26T04:52:19.678Z,8.18
2022-11-26T04:54:46.623Z,6.90
2022-11-26T04:57:14.236Z,7.95
2022-11-26T04:59:41.154Z,9.52
2022-11-26T05:02:08.033Z,8.27
2022-11-26T05:04:35.016Z,8.55
2022-11-26T05:07:01.898Z,9.73
2022-11-26T05:09:28.807Z,8.57
2022-11-26T05:11:55.759Z,9.68
2022-11-26T05:14:22.948Z,10.40
2022-11-26T05:16:49.950Z,11.25
2022-11-26T05:19:17.583Z,9.20
2022-11-26T05:21:44.606Z,11.35
2022-11-26T05:24:11.585Z,11.20
2022-11-26T05:26:38.543Z,10.55
2022-11-26T05:29:05.567Z,10.38
2022-11-26T05:31:32.610Z,10.02
2022-11-26T05:33:59.597Z,11.77
2022-11-26T05:36:26.472Z,10.93
2022-11-26T05:38:53.445Z,11.73
2022-11-26T05:41:20.658Z,9.73
2022-11-26T05:43:47.599Z,10.50
2022-11-26T05:46:16.803Z,11.32
2022-11-26T05:48:43.942Z,12.07
2022-11-26T05:51:11.081Z,11.23
2022-11-26T05:53:38.263Z,10.30
2022-11-26T05:56:05.625Z,9.90
2022-11-26T05:58:33.001Z,11.50
2022-11-26T06:01:00.019Z,9.93
2022-11-26T06:03:27.297Z,10.02
2022-11-26T06:05:54.402Z,11.18
2022-11-26T06:08:21.330Z,11.68
2022-11-26T06:10:48.190Z,9.63
2022-11-26T06:13:15.407Z,10.68
2022-11-26T06:15:42.394Z,10.50
2022-11-26T06:18:09.331Z,12.75
2022-11-26T06:20:37.675Z,10.70
2022-11-26T06:23:04.729Z,10.57
2022-11-26T06:25:31.764Z,11.95
2022-11-26T06:27:58.770Z,11.00
2022-11-26T06:30:25.813Z,11.95
2022-11-26T06:33:04.898Z,9.30
2022-11-26T06:35:35.241Z,12.68
2022-11-26T08:44:37.658Z,9.25
2022-11-26T08:50:20.335Z,6.90
2022-11-26T08:56:15.155Z,7.57
2022-11-26T08:58:52.825Z,8.38
2022-11-26T09:01:41.415Z,9.15
2022-11-26T09:04:10.701Z,7.28
2022-11-26T09:06:44.591Z,7.00
2022-11-26T09:09:18.552Z,9.40
2022-11-26T09:11:57.925Z,7.22
2022-11-26T09:14:37.804Z,6.90
2022-11-26T09:17:10.285Z,7.60
2022-11-26T09:19:38.302Z,6.22
2022-11-26T09:22:07.201Z,7.45
2022-11-26T09:24:35.070Z,6.13
2022-11-26T09:27:07.634Z,7.47
2022-11-26T09:29:38.334Z,8.13
2022-11-26T09:32:23.593Z,6.20
2022-11-26T09:34:52.966Z,7.35
2022-11-26T09:37:21.026Z,6.53
2022-11-26T09:39:50.327Z,6.80
2022-11-26T09:42:46.616Z,7.40
2022-11-26T09:45:42.514Z,7.43
2022-11-26T09:48:18.324Z,7.28
2022-11-26T09:50:48.300Z,7.95
2022-11-26T09:53:26.588Z,8.48
2022-11-26T09:55:56.444Z,7.82
2022-11-26T09:59:02.458Z,7.20
2022-11-26T10:01:33.544Z,7.90
2022-11-26T10:04:01.265Z,9.07
2022-11-26T10:07:26.245Z,8.05
2022-11-26T10:10:06.002Z,8.23
2022-11-26T10:13:22.049Z,9.43
2022-11-26T10:16:18.608Z,7.22
2022-11-26T10:21:59.521Z,6.68
2022-11-26T10:24:41.033Z,9.90
2022-11-26T10:27:20.805Z,7.47
2022-11-26T10:30:40.092Z,8.30
2022-11-26T10:33:09.025Z,9.55
2022-11-26T10:35:36.002Z,7.93
2022-11-26T10:38:03.067Z,9.85
2022-11-26T10:40:33.589Z,7.80
2022-11-26T10:43:08.392Z,8.98
2022-11-26T10:45:46.160Z,9.50
2022-11-26T10:48:29.297Z,8.35
2022-11-26T10:51:13.560Z,9.23
2022-11-26T10:53:55.530Z,9.10
2022-11-26T10:56:35.124Z,10.98
2022-11-26T10:59:14.812Z,8.88
2022-11-26T11:01:42.360Z,9.93
2022-11-26T11:04:31.737Z,9.23
2022-11-26T11:06:59.233Z,8.80
2022-11-26T11:09:34.974Z,8.73
2022-11-26T11:14:46.488Z,9.57
2022-11-26T11:17:35.422Z,8.15
2022-11-26T11:20:17.389Z,8.75
2022-11-26T11:22:46.158Z,7.65
2022-11-26T11:25:24.435Z,10.65
2022-11-26T11:27:52.774Z,10.10
2022-11-26T11:30:29.717Z,11.60
2022-11-26T11:33:09.900Z,8.88
2022-11-26T11:35:37.131Z,9.13
2022-11-26T11:38:04.743Z,9.77
2022-11-26T11:40:41.587Z,9.52
2022-11-26T11:43:17.106Z,9.82
2022-11-26T11:46:15.378Z,8.48
2022-11-26T11:48:59.545Z,8.27
2022-11-26T11:51:57.752Z,9.30
2022-11-26T11:54:56.944Z,6.68
2022-11-26T11:57:42.506Z,7.88
2022-11-26T12:00:21.916Z,8.60
2022-11-26T12:02:56.692Z,6.45
2022-11-26T12:05:42.960Z,8.35
2022-11-26T12:08:42.964Z,7.65
2022-11-26T12:11:24.483Z,6.82
2022-11-26T12:13:59.178Z,9.10
2022-11-26T12:16:33.340Z,7.53
2022-11-26T12:19:49.767Z,6.97
2022-11-26T12:22:26.445Z,6.80
2022-11-26T12:25:07.688Z,6.25
2022-11-26T12:27:43.077Z,8.02
2022-11-26T12:30:18.191Z,6.43
2022-11-26T12:32:54.752Z,5.38
2022-11-26T12:35:48.765Z,7.68
2022-11-26T12:38:40.973Z,6.45
2022-11-26T12:41:29.083Z,5.15
2022-11-26T12:44:10.472Z,5.75
2022-11-26T12:46:47.834Z,6.38
2022-11-26T12:49:39.754Z,6.25
2022-11-26T12:52:27.929Z,4.88
2022-11-26T12:55:18.184Z,6.45
2022-11-26T12:58:11.910Z,5.25
2022-11-26T13:00:39.172Z,5.10
2022-11-26T13:03:07.161Z,4.85
2022-11-26T13:06:12.301Z,5.53
2022-11-26T13:09:03.279Z,4.80
2022-11-26T13:12:07.538Z,5.95
2022-11-26T13:14:48.224Z,4.47
2022-11-26T13:17:25.278Z,5.13
2022-11-26T13:20:21.165Z,5.63
2022-11-26T13:23:22.876Z,5.22
2022-11-26T13:26:34.988Z,7.22
2022-11-26T13:29:28.152Z,5.90
2022-11-26T13:32:30.023Z,5.03
2022-11-26T13:35:20.734Z,5.03
2022-11-26T13:38:23.232Z,6.15
2022-11-26T13:41:19.722Z,5.53
2022-11-26T13:44:11.297Z,5.82
2022-11-26T13:46:47.821Z,5.53
2022-11-26T13:49:22.227Z,5.28
2022-11-26T13:51:57.075Z,6.07
2022-11-26T13:54:46.815Z,5.10
2022-11-26T13:57:20.883Z,5.38
2022-11-26T13:59:52.027Z,5.47
2022-11-26T14:02:34.169Z,6.07
2022-11-26T14:05:08.062Z,6.65
2022-11-26T14:07:37.274Z,5.28
2022-11-26T14:10:09.175Z,6.05
2022-11-26T14:13:04.429Z,7.88
2022-11-26T14:15:43.672Z,5.40
2022-11-26T14:18:16.320Z,5.65
2022-11-26T14:21:01.230Z,5.15
2022-11-26T14:23:54.310Z,5.47
2022-11-26T14:26:38.480Z,5.13
2022-11-26T14:29:08.527Z,4.25
2022-11-26T14:31:39.155Z,4.68
2022-11-26T14:34:15.398Z,6.25
2022-11-26T14:36:58.940Z,6.55
2022-11-26T14:39:27.806Z,6.43
2022-11-26T14:42:02.217Z,4.88
2022-11-26T14:44:33.056Z,5.85
2022-11-26T14:47:08.860Z,4.80
2022-11-26T14:52:36.629Z,4.55
2022-11-26T14:55:25.369Z,5.18
2022-11-26T14:58:16.779Z,4.55
2022-11-26T15:00:44.037Z,4.00
2022-11-26T15:03:26.224Z,4.20
2022-11-26T15:05:53.260Z,3.90
2022-11-26T15:17:56.701Z,5.10
2022-11-26T15:20:25.326Z,3.50
2022-11-26T15:23:14.587Z,4.30
2022-11-26T15:25:50.368Z,3.47
2022-11-26T15:28:22.864Z,3.03
2022-11-26T15:31:00.627Z,5.03
2022-11-26T15:33:31.056Z,4.20
2022-11-26T15:35:58.396Z,4.00
2022-11-26T15:38:29.145Z,3.50
2022-11-26T15:41:05.572Z,3.70
2022-11-26T15:43:49.548Z,4.10
2022-11-26T15:46:33.110Z,3.65
2022-11-26T15:49:09.006Z,4.20
2022-11-26T15:51:44.031Z,3.92
2022-11-26T15:54:50.044Z,4.10
2022-11-26T15:57:30.033Z,3.83
2022-11-26T16:00:07.259Z,3.83
2022-11-26T16:02:34.473Z,4.38
2022-11-26T16:05:03.520Z,4.88
2022-11-26T16:07:33.270Z,4.85
2022-11-26T16:10:26.554Z,4.55
2022-11-26T16:13:11.715Z,5.80
2022-11-26T16:15:56.909Z,5.78
2022-11-26T16:18:32.113Z,6.03
2022-11-26T16:21:07.224Z,4.93
2022-11-26T16:23:34.290Z,6.13
2022-11-26T16:26:16.133Z,6.05
2022-11-26T16:28:45.212Z,5.50
2022-11-26T16:31:14.687Z,6.32
2022-11-26T16:33:41.899Z,6.75
2022-11-26T16:36:32.979Z,6.15
2022-11-26T16:39:00.174Z,8.02
2022-11-26T16:41:27.159Z,5.50
2022-11-26T16:43:54.213Z,5.13
2022-11-26T16:46:23.907Z,7.70
2022-11-26T16:48:51.662Z,6.97
2022-11-26T16:51:20.077Z,8.52
2022-11-26T16:53:47.316Z,6.65
2022-11-26T16:56:26.056Z,6.53
2022-11-26T16:58:53.441Z,6.53
2022-11-26T17:01:20.934Z,6.82
2022-11-26T17:03:47.961Z,7.40
2022-11-26T17:06:25.337Z,7.78
2022-11-26T17:08:55.112Z,7.40
2022-11-26T17:11:22.436Z,7.07
2022-11-26T17:13:49.436Z,7.05
2022-11-26T17:16:21.798Z,8.95
2022-11-26T17:18:50.983Z,8.52
2022-11-26T17:21:17.953Z,6.00
2022-11-26T17:23:45.076Z,5.70
2022-11-26T17:26:24.172Z,6.20
2022-11-26T17:28:51.550Z,4.65
2022-11-26T17:31:18.746Z,5.68
2022-11-26T17:33:45.786Z,6.75
2022-11-26T17:36:22.625Z,7.05
2022-11-26T17:38:50.725Z,9.27
2022-11-26T17:41:18.301Z,5.07
2022-11-26T17:43:45.337Z,5.03
2022-11-26T17:46:19.353Z,5.35
2022-11-26T17:48:47.546Z,5.90
2022-11-26T17:51:15.467Z,7.15
2022-11-26T17:53:43.562Z,6.13
2022-11-26T17:56:23.913Z,4.72
2022-11-26T17:58:51.252Z,5.40
2022-11-26T18:01:19.276Z,4.82
2022-11-26T18:03:47.195Z,5.43
2022-11-26T18:06:21.053Z,5.60
2022-11-26T18:08:48.528Z,4.05
2022-11-26T18:11:16.313Z,4.93
2022-11-26T18:13:43.503Z,4.93
2022-11-26T18:16:10.414Z,5.85
2022-11-26T18:18:37.445Z,4.75
2022-11-26T18:21:05.093Z,5.32
2022-11-26T18:23:32.040Z,3.50
2022-11-26T18:25:59.085Z,4.72
2022-11-26T18:28:26.133Z,4.10
2022-11-26T18:30:58.527Z,4.80
2022-11-26T18:33:25.530Z,6.93
2022-11-26T18:35:52.758Z,3.70
2022-11-26T18:38:19.970Z,3.78
2022-11-26T18:40:47.001Z,4.40
2022-11-26T18:43:14.256Z,5.55
2022-11-26T18:45:42.782Z,5.53
2022-11-26T18:48:09.729Z,6.20
2022-11-26T18:50:38.299Z,4.70
2022-11-26T18:53:05.323Z,6.55
2022-11-26T18:55:32.325Z,5.93
2022-11-26T18:58:01.848Z,4.30
2022-11-26T19:00:31.195Z,6.55
2022-11-26T19:02:58.164Z,4.82
2022-11-26T19:05:25.126Z,5.32
2022-11-26T19:07:52.135Z,6.10
2022-11-26T19:10:19.189Z,7.68
2022-11-26T19:12:48.051Z,5.35
2022-11-26T19:15:14.939Z,6.15
2022-11-26T19:17:41.899Z,5.90
2022-11-26T19:20:09.021Z,6.00
2022-11-26T19:22:36.994Z,5.25
2022-11-26T19:25:04.225Z,4.40
2022-11-26T19:27:31.325Z,4.88
2022-11-26T19:29:58.423Z,5.35
2022-11-26T19:32:25.429Z,6.22
2022-11-26T19:34:52.476Z,4.75
2022-11-26T19:37:19.523Z,5.07
2022-11-26T19:39:46.464Z,5.45
2022-11-26T19:42:13.359Z,7.75
2022-11-26T19:44:40.323Z,5.18
2022-11-26T19:47:07.621Z,5.40
2022-11-26T19:49:34.936Z,2.72
2022-11-26T19:52:01.904Z,3.58
2022-11-26T19:54:28.784Z,3.95
2022-11-26T19:56:55.800Z,3.75
2022-11-26T19:59:22.696Z,4.75
2022-11-26T20:01:49.683Z,4.70
2022-11-26T20:04:19.579Z,4.38
2022-11-26T20:06:46.605Z,4.28
2022-11-26T20:09:14.796Z,6.13
2022-11-26T20:11:42.344Z,5.53
2022-11-26T20:14:10.763Z,4.30
2022-11-26T20:16:40.193Z,4.57
2022-11-26T20:19:07.705Z,4.80
2022-11-26T20:21:35.359Z,4.03
2022-11-26T20:24:07.767Z,4.57
2022-11-26T20:26:41.375Z,3.88
2022-11-26T20:29:12.576Z,4.28
2022-11-26T20:31:49.789Z,5.00
2022-11-26T20:34:20.041Z,3.78
2022-11-26T20:36:47.513Z,4.85
2022-11-26T20:39:21.886Z,5.47
2022-11-26T20:41:49.826Z,4.88
2022-11-26T20:44:17.001Z,3.10
2022-11-26T20:46:43.864Z,4.03
2022-11-26T20:49:11.623Z,4.03
2022-11-26T20:51:38.694Z,3.40
2022-11-26T20:54:05.856Z,4.50
2022-11-26T20:56:33.405Z,6.53
2022-11-26T20:59:01.820Z,4.60
2022-11-26T21:01:30.294Z,4.15
2022-11-26T21:03:58.580Z,5.20
2022-11-26T21:06:30.364Z,4.63
2022-11-26T21:09:01.559Z,3.00
2022-11-26T21:11:29.738Z,4.63
2022-11-26T21:14:00.075Z,4.60
2022-11-26T21:16:28.638Z,6.93
2022-11-26T21:18:56.540Z,5.05
2022-11-26T21:21:25.219Z,5.50
2022-11-26T21:23:53.130Z,3.88
2022-11-26T21:26:25.383Z,4.22
2022-11-26T21:28:58.230Z,4.28
2022-11-26T21:31:27.578Z,4.05
2022-11-26T21:33:56.579Z,4.13
2022-11-26T21:36:25.544Z,4.53
2022-11-26T21:38:52.543Z,4.65
2022-11-26T21:41:20.651Z,5.47
2022-11-26T21:43:48.612Z,5.13
2022-11-26T21:46:26.924Z,5.22
2022-11-26T21:48:55.919Z,3.80
2022-11-26T21:51:26.094Z,6.80
2022-11-26T21:53:57.723Z,5.03
2022-11-26T21:56:30.149Z,3.22
2022-11-26T21:58:59.258Z,5.10
2022-11-26T22:01:32.849Z,4.82
2022-11-26T22:04:08.620Z,4.75
2022-11-26T22:06:36.664Z,4.63
2022-11-26T22:09:05.171Z,4.70
2022-11-26T22:11:36.047Z,4.53
2022-11-26T22:14:04.035Z,4.57
2022-11-26T22:16:31.597Z,5.65
2022-11-26T22:19:00.520Z,4.25
2022-11-26T22:21:34.296Z,5.07
2022-11-26T22:24:03.295Z,6.50
2022-11-26T22:26:31.875Z,4.25
2022-11-26T22:28:59.601Z,5.30
2022-11-26T22:31:35.938Z,4.30
2022-11-26T22:34:13.217Z,5.35
2022-11-26T22:36:41.472Z,6.28
2022-11-26T22:39:12.916Z,3.80
2022-11-26T22:41:43.728Z,5.78
2022-11-26T22:44:10.999Z,3.78
2022-11-26T22:46:38.430Z,4.32
2022-11-26T22:49:06.852Z,5.22
2022-11-26T22:51:35.961Z,4.13
2022-11-26T22:54:09.763Z,4.28
2022-11-26T22:56:37.966Z,4.32
2022-11-26T22:59:07.504Z,4.63
2022-11-26T23:01:37.071Z,3.47
2022-11-26T23:04:08.317Z,5.32
2022-11-26T23:06:36.429Z,3.88
2022-11-26T23:09:06.579Z,4.25
2022-11-26T23:11:37.996Z,3.60
2022-11-26T23:14:07.733Z,4.03
2022-11-26T23:16:37.023Z,6.07
2022-11-26T23:19:05.835Z,3.10
2022-11-26T23:21:40.041Z,2.67
2022-11-26T23:24:08.507Z,3.60
2022-11-26T23:26:38.565Z,4.18
2022-11-26T23:29:07.274Z,3.58
2022-11-26T23:31:38.235Z,4.10
2022-11-26T23:34:06.233Z,4.78
2022-11-26T23:36:34.615Z,3.58
2022-11-26T23:41:58.109Z,4.03
2022-11-26T23:44:28.237Z,3.60
2022-11-26T23:46:55.382Z,4.57
2022-11-26T23:49:23.205Z,3.45
2022-11-26T23:51:53.902Z,3.85
2022-11-26T23:54:21.115Z,5.45
2022-11-26T23:56:50.511Z,3.95
2022-11-26T23:59:18.542Z,3.60
